createdAt,value
2018-06-15T00:00:08.250Z,4.80
2018-06-15T00:01:08.263Z,5.10
2018-06-15T00:02:08.197Z,5.80
2018-06-15T00:03:08.169Z,5.60
2018-06-15T00:04:08.147Z,6.40
2018-06-15T00:05:08.130Z,5.40
2018-06-15T00:06:08.106Z,5.40
2018-06-15T00:07:08.077Z,6.20
2018-06-15T00:08:08.055Z,5.80
2018-06-15T00:09:08.029Z,6.40
2018-06-15T00:10:08.007Z,5.70
2018-06-15T00:11:07.985Z,6.00
2018-06-15T00:12:07.962Z,5.80
2018-06-15T00:13:07.931Z,5.80
2018-06-15T00:14:07.916Z,5.90
2018-06-15T00:15:07.889Z,5.40
2018-06-15T00:16:07.860Z,6.40
2018-06-15T00:17:07.841Z,6.20
2018-06-15T00:18:07.813Z,6.20
2018-06-15T00:19:07.796Z,5.70
2018-06-15T00:20:07.759Z,6.50
2018-06-15T00:21:07.744Z,6.00
2018-06-15T00:22:07.718Z,5.80
2018-06-15T00:23:07.701Z,6.20
2018-06-15T00:24:07.665Z,5.50
2018-06-15T00:25:07.646Z,6.00
2018-06-15T00:26:07.624Z,5.80
2018-06-15T00:27:07.596Z,5.60
2018-06-15T00:28:07.574Z,5.60
2018-06-15T00:29:07.562Z,6.20
2018-06-15T00:30:07.523Z,6.20
2018-06-15T00:31:07.500Z,6.00
2018-06-15T00:32:07.472Z,6.40
2018-06-15T00:33:07.471Z,5.50
2018-06-15T00:34:07.425Z,5.90
2018-06-15T00:35:07.403Z,6.60
2018-06-15T00:36:07.382Z,6.10
2018-06-15T00:37:07.361Z,6.30
2018-06-15T00:38:07.335Z,6.20
2018-06-15T00:39:07.304Z,5.70
2018-06-15T00:40:07.276Z,6.50
2018-06-15T00:41:07.258Z,5.80
2018-06-15T00:42:07.238Z,6.40
2018-06-15T00:43:07.211Z,6.80
2018-06-15T00:44:07.183Z,7.00
2018-06-15T00:45:07.161Z,6.50
2018-06-15T00:46:07.146Z,6.10
2018-06-15T00:47:07.115Z,5.80
2018-06-15T00:48:07.090Z,5.90
2018-06-15T00:49:07.069Z,6.70
2018-06-15T00:50:07.036Z,6.70
2018-06-15T00:51:07.019Z,6.10
2018-06-15T00:52:06.993Z,6.50
2018-06-15T00:53:06.973Z,6.00
2018-06-15T00:54:06.945Z,6.40
2018-06-15T00:55:06.920Z,6.30
2018-06-15T00:56:06.894Z,6.50
2018-06-15T00:57:06.868Z,6.80
2018-06-15T00:58:06.853Z,6.50
2018-06-15T00:59:06.826Z,6.40
2018-06-15T01:00:06.803Z,6.60
2018-06-15T01:01:06.782Z,6.30
2018-06-15T01:02:06.748Z,6.90
2018-06-15T01:03:06.738Z,6.80
2018-06-15T01:04:06.703Z,7.50
2018-06-15T01:05:06.674Z,6.50
2018-06-15T01:06:06.659Z,6.40
2018-06-15T01:07:06.627Z,7.30
2018-06-15T01:08:06.610Z,7.10
2018-06-15T01:09:06.594Z,7.10
2018-06-15T01:10:06.561Z,6.70
2018-06-15T01:11:06.537Z,6.80
2018-06-15T01:12:06.518Z,6.60
2018-06-15T01:13:06.484Z,7.10
2018-06-15T01:14:06.462Z,6.30
2018-06-15T01:15:06.434Z,7.00
2018-06-15T01:16:06.420Z,7.10
2018-06-15T01:17:06.385Z,7.50
2018-06-15T01:18:06.370Z,7.40
2018-06-15T01:19:06.347Z,7.20
2018-06-15T01:20:06.311Z,7.70
2018-06-15T01:21:06.802Z,7.00
2018-06-15T01:22:06.265Z,7.30
2018-06-15T01:23:06.248Z,7.50
2018-06-15T01:24:06.215Z,7.20
2018-06-15T01:25:06.203Z,7.30
2018-06-15T01:26:06.182Z,7.50
2018-06-15T01:27:06.143Z,7.70
2018-06-15T01:28:06.125Z,6.60
2018-06-15T01:29:06.104Z,7.00
2018-06-15T01:30:06.080Z,7.00
2018-06-15T01:31:06.057Z,7.00
2018-06-15T01:32:06.022Z,7.40
2018-06-15T01:33:06.013Z,7.30
2018-06-15T01:34:05.975Z,8.00
2018-06-15T01:35:05.957Z,7.70
2018-06-15T01:36:05.935Z,7.70
2018-06-15T01:37:05.902Z,7.50
2018-06-15T01:38:05.895Z,7.40
2018-06-15T01:39:05.859Z,7.20
2018-06-15T01:40:05.830Z,7.40
2018-06-15T01:41:05.812Z,7.60
2018-06-15T01:42:05.792Z,7.10
2018-06-15T01:43:05.760Z,7.70
2018-06-15T01:44:05.734Z,7.90
2018-06-15T01:45:05.719Z,7.00
2018-06-15T01:46:05.691Z,7.10
2018-06-15T01:47:05.657Z,7.70
2018-06-15T01:48:05.644Z,7.50
2018-06-15T01:49:05.623Z,7.90
2018-06-15T01:50:05.591Z,7.40
2018-06-15T01:51:05.575Z,7.90
2018-06-15T01:52:05.539Z,7.70
2018-06-15T01:53:05.519Z,7.80
2018-06-15T01:54:05.500Z,7.30
2018-06-15T01:55:05.478Z,7.70
2018-06-15T01:56:05.447Z,7.70
2018-06-15T01:57:05.429Z,8.40
2018-06-15T01:58:05.396Z,8.10
2018-06-15T01:59:05.374Z,8.00
2018-06-15T02:00:05.349Z,7.20
2018-06-15T02:01:05.384Z,7.40
2018-06-15T02:02:05.308Z,7.60
2018-06-15T02:03:05.277Z,8.60
2018-06-15T02:04:05.263Z,7.70
2018-06-15T02:05:05.236Z,8.00
2018-06-15T02:06:05.201Z,8.50
2018-06-15T02:07:05.181Z,7.20
2018-06-15T02:08:05.169Z,6.90
2018-06-15T02:09:05.126Z,7.70
2018-06-15T02:10:05.116Z,7.50
2018-06-15T02:11:05.092Z,8.00
2018-06-15T02:12:05.064Z,7.70
2018-06-15T02:13:05.036Z,7.70
2018-06-15T02:14:05.010Z,7.90
2018-06-15T02:15:04.994Z,7.70
2018-06-15T02:16:04.964Z,7.50
2018-06-15T02:17:04.936Z,6.90
2018-06-15T02:18:04.914Z,7.80
2018-06-15T02:19:04.892Z,7.80
2018-06-15T02:20:04.869Z,7.50
2018-06-15T02:21:04.846Z,7.40
2018-06-15T02:22:04.816Z,7.50
2018-06-15T02:23:04.792Z,7.10
2018-06-15T02:24:04.768Z,7.70
2018-06-15T02:25:04.743Z,8.10
2018-06-15T02:26:04.723Z,6.80
2018-06-15T02:27:07.984Z,8.30
2018-06-15T02:28:07.912Z,8.40
2018-06-15T02:29:07.901Z,8.00
2018-06-15T02:30:05.568Z,8.20
2018-06-15T02:31:06.918Z,7.00
2018-06-15T02:32:05.814Z,7.10
2018-06-15T02:33:06.264Z,8.10
2018-06-15T02:34:05.945Z,7.40
2018-06-15T02:35:07.946Z,7.20
2018-06-15T02:36:04.481Z,7.90
2018-06-15T02:37:04.455Z,7.80
2018-06-15T02:38:04.448Z,7.80
2018-06-15T02:39:04.409Z,7.60
2018-06-15T02:40:04.377Z,8.00
2018-06-15T02:41:04.359Z,7.50
2018-06-15T02:42:04.334Z,8.50
2018-06-15T02:43:04.816Z,7.80
2018-06-15T02:44:04.283Z,7.70
2018-06-15T02:45:04.262Z,7.10
2018-06-15T02:46:04.239Z,7.20
2018-06-15T02:47:04.214Z,6.90
2018-06-15T02:48:04.182Z,7.70
2018-06-15T02:49:04.158Z,7.80
2018-06-15T02:50:04.141Z,7.80
2018-06-15T02:51:04.116Z,7.50
2018-06-15T02:52:04.094Z,7.70
2018-06-15T02:53:04.069Z,7.90
2018-06-15T02:54:04.044Z,7.50
2018-06-15T02:55:04.027Z,7.70
2018-06-15T02:56:03.987Z,7.20
2018-06-15T02:57:03.975Z,7.60
2018-06-15T02:58:03.950Z,7.80
2018-06-15T02:59:03.947Z,7.30
2018-06-15T03:00:03.904Z,7.50
2018-06-15T03:01:03.876Z,7.50
2018-06-15T03:02:03.899Z,8.10
2018-06-15T03:03:03.827Z,7.20
2018-06-15T03:04:03.841Z,7.40
2018-06-15T03:05:03.772Z,6.80
2018-06-15T03:06:03.753Z,7.90
2018-06-15T03:07:03.730Z,6.40
2018-06-15T03:08:03.697Z,7.80
2018-06-15T03:09:03.676Z,8.20
2018-06-15T03:10:03.671Z,7.70
2018-06-15T03:11:03.624Z,7.50
2018-06-15T03:12:03.609Z,7.30
2018-06-15T03:13:03.584Z,7.20
2018-06-15T03:14:03.555Z,8.10
2018-06-15T03:15:03.526Z,8.10
2018-06-15T03:16:03.511Z,7.90
2018-06-15T03:17:03.484Z,8.70
2018-06-15T03:18:03.458Z,8.20
2018-06-15T03:19:03.437Z,8.10
2018-06-15T03:20:03.406Z,8.10
2018-06-15T03:21:03.385Z,8.50
2018-06-15T03:22:03.362Z,7.80
2018-06-15T03:23:03.331Z,8.30
2018-06-15T03:24:03.322Z,8.60
2018-06-15T03:25:03.302Z,8.30
2018-06-15T03:26:03.263Z,9.00
2018-06-15T03:27:03.242Z,8.50
2018-06-15T03:28:03.208Z,7.90
2018-06-15T03:29:03.187Z,8.80
2018-06-15T03:30:03.169Z,8.20
2018-06-15T03:31:03.151Z,20.40
2018-06-15T03:32:03.115Z,14.70
2018-06-15T03:33:03.093Z,12.00
2018-06-15T03:34:03.072Z,9.90
2018-06-15T03:35:03.048Z,12.90
2018-06-15T03:36:03.024Z,13.10
2018-06-15T03:37:03.009Z,15.30
2018-06-15T03:38:02.980Z,15.20
2018-06-15T03:39:02.952Z,17.40
2018-06-15T03:40:02.919Z,24.40
2018-06-15T03:41:02.915Z,29.30
2018-06-15T03:42:02.873Z,14.90
2018-06-15T03:43:02.852Z,27.80
2018-06-15T03:44:02.836Z,16.90
2018-06-15T03:45:02.797Z,16.90
2018-06-15T03:46:02.782Z,24.20
2018-06-15T03:47:02.757Z,21.60
2018-06-15T03:48:02.728Z,23.80
2018-06-15T03:49:02.707Z,20.10
2018-06-15T03:50:02.687Z,33.30
2018-06-15T03:51:02.661Z,21.00
2018-06-15T03:52:02.628Z,18.50
2018-06-15T03:53:02.617Z,12.50
2018-06-15T03:54:02.581Z,18.60
2018-06-15T03:55:02.563Z,19.60
2018-06-15T03:56:02.539Z,26.70
2018-06-15T03:57:02.509Z,16.90
2018-06-15T03:58:02.488Z,24.20
2018-06-15T03:59:02.465Z,17.30
2018-06-15T04:00:02.440Z,20.50
2018-06-15T04:01:02.413Z,21.80
2018-06-15T04:02:02.391Z,21.60
2018-06-15T04:03:02.364Z,21.90
2018-06-15T04:04:02.347Z,17.00
2018-06-15T04:05:02.320Z,22.40
2018-06-15T04:06:02.302Z,20.00
2018-06-15T04:07:02.273Z,16.20
2018-06-15T04:08:02.241Z,27.70
2018-06-15T04:09:02.229Z,15.90
2018-06-15T04:10:02.194Z,37.20
2018-06-15T04:11:02.172Z,22.20
2018-06-15T04:12:02.154Z,19.10
2018-06-15T04:13:02.162Z,30.50
2018-06-15T04:14:02.113Z,21.40
2018-06-15T04:15:02.087Z,19.50
2018-06-15T04:16:02.047Z,11.60
2018-06-15T04:17:02.035Z,15.60
2018-06-15T04:18:02.003Z,21.20
2018-06-15T04:19:01.990Z,25.50
2018-06-15T04:20:01.950Z,14.30
2018-06-15T04:21:01.941Z,21.20
2018-06-15T04:22:01.905Z,22.30
2018-06-15T04:23:01.894Z,25.20
2018-06-15T04:24:01.864Z,29.30
2018-06-15T04:25:01.829Z,36.30
2018-06-15T04:26:01.814Z,23.50
2018-06-15T04:27:01.789Z,19.00
2018-06-15T04:28:01.761Z,18.90
2018-06-15T04:29:01.739Z,21.70
2018-06-15T04:30:01.720Z,16.40
2018-06-15T04:31:01.685Z,28.00
2018-06-15T04:32:01.666Z,24.20
2018-06-15T04:33:01.637Z,28.70
2018-06-15T04:34:01.615Z,25.60
2018-06-15T04:35:01.596Z,21.00
2018-06-15T04:36:01.570Z,18.90
2018-06-15T04:37:01.541Z,12.20
2018-06-15T04:38:01.527Z,13.50
2018-06-15T04:39:01.499Z,31.40
2018-06-15T04:40:01.474Z,22.40
2018-06-15T04:41:01.454Z,18.10
2018-06-15T04:42:01.420Z,20.00
2018-06-15T04:43:01.398Z,25.20
2018-06-15T04:44:01.380Z,22.90
2018-06-15T04:45:01.355Z,23.80
2018-06-15T04:46:01.340Z,25.60
2018-06-15T04:47:01.309Z,22.60
2018-06-15T04:48:01.289Z,23.00
2018-06-15T04:49:01.256Z,12.10
2018-06-15T04:50:01.238Z,26.90
2018-06-15T04:51:01.207Z,36.30
2018-06-15T04:52:01.192Z,30.00
2018-06-15T04:53:01.165Z,21.90
2018-06-15T04:54:01.136Z,35.90
2018-06-15T04:55:01.114Z,26.40
2018-06-15T04:56:01.096Z,19.20
2018-06-15T04:57:01.079Z,34.60
2018-06-15T04:58:01.047Z,22.00
2018-06-15T04:59:01.021Z,14.10
2018-06-15T05:00:00.995Z,16.90
2018-06-15T05:01:00.971Z,17.00
2018-06-15T05:02:00.966Z,14.00
2018-06-15T05:03:00.925Z,18.60
2018-06-15T05:04:00.906Z,21.50
2018-06-15T05:05:00.874Z,25.80
2018-06-15T05:06:00.849Z,25.90
2018-06-15T05:07:00.830Z,30.90
2018-06-15T05:08:00.798Z,29.60
2018-06-15T05:09:00.774Z,27.00
2018-06-15T05:10:00.771Z,18.40
2018-06-15T05:11:00.737Z,25.70
2018-06-15T05:12:00.706Z,11.40
2018-06-15T05:13:00.693Z,34.20
2018-06-15T05:14:00.657Z,9.50
2018-06-15T05:15:00.638Z,32.60
2018-06-15T05:16:00.616Z,47.10
2018-06-15T05:17:00.586Z,41.30
2018-06-15T05:18:00.569Z,29.90
2018-06-15T05:19:00.544Z,38.20
2018-06-15T05:20:00.510Z,43.20
2018-06-15T05:21:00.501Z,26.00
2018-06-15T05:22:00.469Z,30.30
2018-06-15T05:23:00.454Z,29.70
2018-06-15T05:24:00.423Z,23.00
2018-06-15T05:25:00.403Z,33.70
2018-06-15T05:26:00.376Z,27.20
2018-06-15T05:27:00.360Z,15.10
2018-06-15T05:28:00.327Z,23.90
2018-06-15T05:29:00.308Z,21.50
2018-06-15T05:30:00.284Z,19.20
2018-06-15T05:31:00.260Z,20.40
2018-06-15T05:32:00.235Z,16.60
2018-06-15T05:33:00.259Z,21.60
2018-06-15T05:34:00.192Z,14.30
2018-06-15T05:35:00.183Z,22.70
2018-06-15T05:36:00.136Z,19.50
2018-06-15T05:37:00.146Z,20.90
2018-06-15T05:38:00.096Z,18.50
2018-06-15T05:39:00.062Z,24.70
2018-06-15T05:40:00.049Z,23.10
2018-06-15T05:41:00.025Z,19.50
2018-06-15T05:42:00.004Z,17.90
2018-06-15T05:42:59.976Z,19.00
2018-06-15T05:43:59.949Z,18.50
2018-06-15T05:44:59.921Z,16.90
2018-06-15T05:45:59.907Z,17.40
2018-06-15T05:47:00.857Z,20.00
2018-06-15T05:47:59.876Z,22.40
2018-06-15T05:48:59.825Z,18.40
2018-06-15T05:49:59.857Z,15.70
2018-06-15T05:50:59.787Z,19.60
2018-06-15T05:51:59.763Z,17.30
2018-06-15T05:52:59.733Z,16.50
2018-06-15T05:53:59.707Z,26.80
2018-06-15T05:54:59.691Z,23.90
2018-06-15T05:55:59.659Z,13.90
2018-06-15T05:56:59.640Z,13.50
2018-06-15T05:57:59.621Z,14.40
2018-06-15T05:58:59.590Z,16.40
2018-06-15T05:59:59.575Z,15.00
2018-06-15T06:00:59.549Z,15.90
2018-06-15T06:01:59.527Z,19.60
2018-06-15T06:02:59.504Z,20.90
2018-06-15T06:03:59.577Z,30.60
2018-06-15T06:04:59.458Z,22.00
2018-06-15T06:05:59.451Z,27.30
2018-06-15T06:06:59.402Z,20.60
2018-06-15T06:07:59.388Z,29.00
2018-06-15T06:08:59.358Z,21.90
2018-06-15T06:09:59.342Z,35.10
2018-06-15T06:10:59.306Z,17.10
2018-06-15T06:11:59.294Z,14.70
2018-06-15T06:12:59.268Z,13.60
2018-06-15T06:13:59.243Z,12.10
2018-06-15T06:14:59.222Z,11.80
2018-06-15T06:15:59.190Z,12.30
2018-06-15T06:16:59.175Z,19.70
2018-06-15T06:17:59.152Z,28.20
2018-06-15T06:18:59.127Z,21.00
2018-06-15T06:19:59.140Z,9.70
2018-06-15T06:20:59.073Z,13.90
2018-06-15T06:21:59.064Z,11.70
2018-06-15T06:22:59.036Z,13.40
2018-06-15T06:23:59.004Z,12.00
2018-06-15T06:24:58.992Z,16.30
2018-06-15T06:25:58.960Z,13.70
2018-06-15T06:26:58.944Z,18.20
2018-06-15T06:27:58.919Z,11.40
2018-06-15T06:28:58.903Z,12.00
2018-06-15T06:29:58.866Z,11.20
2018-06-15T06:30:58.893Z,11.90
2018-06-15T06:31:58.834Z,11.30
2018-06-15T06:32:58.811Z,11.60
2018-06-15T06:33:58.783Z,9.50
2018-06-15T06:34:58.756Z,9.70
2018-06-15T06:35:58.739Z,9.90
2018-06-15T06:36:58.721Z,10.20
2018-06-15T06:37:58.711Z,9.50
2018-06-15T06:38:58.668Z,10.00
2018-06-15T06:39:58.639Z,9.80
2018-06-15T06:40:58.614Z,9.70
2018-06-15T06:41:58.600Z,8.90
2018-06-15T06:42:58.569Z,8.70
2018-06-15T06:43:58.555Z,9.20
2018-06-15T06:44:58.529Z,8.80
2018-06-15T06:45:58.505Z,10.00
2018-06-15T06:46:58.486Z,9.00
2018-06-15T06:47:58.462Z,9.60
2018-06-15T06:48:58.435Z,9.80
2018-06-15T06:49:58.416Z,9.30
2018-06-15T06:50:58.387Z,9.70
2018-06-15T06:51:58.373Z,10.40
2018-06-15T06:52:58.352Z,10.60
2018-06-15T06:53:58.325Z,9.90
2018-06-15T06:54:58.305Z,9.50
2018-06-15T06:55:58.307Z,9.10
2018-06-15T06:56:58.257Z,9.20
2018-06-15T06:57:58.311Z,10.30
2018-06-15T06:58:58.213Z,9.50
2018-06-15T06:59:58.194Z,9.60
2018-06-15T07:00:58.172Z,9.40
2018-06-15T07:01:58.257Z,8.90
2018-06-15T07:02:58.122Z,9.50
2018-06-15T07:03:58.105Z,8.80
2018-06-15T07:04:58.075Z,9.20
2018-06-15T07:05:58.053Z,8.60
2018-06-15T07:06:58.027Z,8.80
2018-06-15T07:07:58.006Z,8.70
2018-06-15T07:08:57.986Z,8.60
2018-06-15T07:09:57.955Z,8.80
2018-06-15T07:10:57.930Z,8.90
2018-06-15T07:11:57.919Z,9.20
2018-06-15T07:12:57.886Z,8.60
2018-06-15T07:13:57.871Z,8.00
2018-06-15T07:14:57.850Z,8.40
2018-06-15T07:15:57.875Z,8.10
2018-06-15T07:16:57.802Z,8.30
2018-06-15T07:17:57.777Z,8.40
2018-06-15T07:18:57.748Z,8.60
2018-06-15T07:19:57.728Z,8.00
2018-06-15T07:20:57.704Z,8.20
2018-06-15T07:21:57.683Z,7.80
2018-06-15T07:22:57.659Z,7.50
2018-06-15T07:23:57.647Z,8.90
2018-06-15T07:24:57.616Z,9.00
2018-06-15T07:25:57.595Z,9.10
2018-06-15T07:26:57.569Z,8.80
2018-06-15T07:27:57.539Z,9.10
2018-06-15T07:28:57.527Z,8.80
2018-06-15T07:29:57.529Z,8.20
2018-06-15T07:30:57.471Z,9.20
2018-06-15T07:31:57.452Z,8.50
2018-06-15T07:32:57.422Z,9.30
2018-06-15T07:33:57.411Z,8.90
2018-06-15T07:34:57.382Z,8.80
2018-06-15T07:35:57.357Z,8.40
2018-06-15T07:36:57.338Z,8.40
2018-06-15T07:37:57.310Z,8.50
2018-06-15T07:38:57.285Z,9.20
2018-06-15T07:39:57.269Z,8.30
2018-06-15T07:40:57.235Z,8.60
2018-06-15T07:41:57.212Z,8.70
2018-06-15T07:42:57.210Z,9.60
2018-06-15T07:43:57.173Z,9.90
2018-06-15T07:44:57.144Z,8.70
2018-06-15T07:45:57.129Z,9.00
2018-06-15T07:46:57.098Z,8.40
2018-06-15T07:47:57.082Z,8.10
2018-06-15T07:48:57.058Z,10.30
2018-06-15T07:49:57.031Z,8.20
2018-06-15T07:50:57.013Z,9.20
2018-06-15T07:51:56.984Z,8.20
2018-06-15T07:52:56.960Z,8.30
2018-06-15T07:53:56.940Z,8.50
2018-06-15T07:54:56.913Z,8.50
2018-06-15T07:55:56.898Z,8.90
2018-06-15T07:56:56.873Z,8.80
2018-06-15T07:57:56.849Z,8.90
2018-06-15T07:58:56.831Z,9.20
2018-06-15T07:59:56.797Z,8.50
2018-06-15T08:00:56.776Z,9.50
2018-06-15T08:01:56.755Z,9.40
2018-06-15T08:02:56.726Z,9.20
2018-06-15T08:03:56.712Z,9.40
2018-06-15T08:04:56.693Z,8.70
2018-06-15T08:05:56.657Z,9.00
2018-06-15T08:06:56.640Z,9.30
2018-06-15T08:07:56.619Z,9.20
2018-06-15T08:08:56.608Z,9.60
2018-06-15T08:09:56.574Z,8.50
2018-06-15T08:10:56.548Z,7.70
2018-06-15T08:11:56.530Z,9.50
2018-06-15T08:12:56.500Z,8.70
2018-06-15T08:13:59.061Z,10.00
2018-06-15T08:14:59.058Z,9.00
2018-06-15T08:15:58.992Z,9.00
2018-06-15T08:16:58.443Z,8.80
2018-06-15T08:17:57.674Z,8.50
2018-06-15T08:18:57.051Z,8.30
2018-06-15T08:19:56.348Z,8.80
2018-06-15T08:20:56.321Z,7.80
2018-06-15T08:21:56.307Z,7.20
2018-06-15T08:22:56.278Z,7.90
2018-06-15T08:23:56.253Z,7.20
2018-06-15T08:24:56.234Z,7.70
2018-06-15T08:25:56.212Z,7.60
2018-06-15T08:26:56.185Z,7.50
2018-06-15T08:27:56.162Z,7.30
2018-06-15T08:28:56.149Z,8.20
2018-06-15T08:29:56.124Z,7.70
2018-06-15T08:30:56.106Z,7.10
2018-06-15T08:31:56.084Z,8.00
2018-06-15T08:32:56.058Z,7.80
2018-06-15T08:33:56.035Z,7.30
2018-06-15T08:34:56.018Z,7.30
2018-06-15T08:35:55.987Z,7.00
2018-06-15T08:36:55.966Z,7.60
2018-06-15T08:37:55.955Z,7.50
2018-06-15T08:38:55.933Z,7.40
2018-06-15T08:39:55.910Z,7.40
2018-06-15T08:40:55.889Z,6.50
2018-06-15T08:41:55.861Z,7.30
2018-06-15T08:42:55.845Z,7.00
2018-06-15T08:43:55.823Z,6.40
2018-06-15T08:44:55.804Z,6.20
2018-06-15T08:45:55.785Z,6.20
2018-06-15T08:46:55.771Z,6.70
2018-06-15T08:47:55.738Z,6.80
2018-06-15T08:48:55.710Z,8.20
2018-06-15T08:49:55.689Z,6.70
2018-06-15T08:50:55.670Z,8.50
2018-06-15T08:51:55.654Z,12.30
2018-06-15T08:52:55.634Z,7.00
2018-06-15T08:53:55.617Z,6.80
2018-06-15T08:54:55.586Z,6.30
2018-06-15T08:55:55.561Z,11.40
2018-06-15T08:56:55.550Z,7.60
2018-06-15T08:57:55.519Z,9.20
2018-06-15T08:58:55.503Z,7.40
2018-06-15T08:59:55.476Z,9.50
2018-06-15T09:00:55.464Z,7.00
2018-06-15T09:01:55.455Z,8.50
2018-06-15T09:02:55.415Z,6.40
2018-06-15T09:03:55.399Z,10.20
2018-06-15T09:04:55.405Z,7.90
2018-06-15T09:05:55.351Z,6.20
2018-06-15T09:06:55.325Z,7.00
2018-06-15T09:07:55.320Z,6.00
2018-06-15T09:08:55.295Z,5.40
2018-06-15T09:09:55.270Z,7.40
2018-06-15T09:10:55.252Z,7.20
2018-06-15T09:11:55.221Z,8.20
2018-06-15T09:12:55.207Z,8.40
2018-06-15T09:13:55.183Z,6.30
2018-06-15T09:14:55.184Z,5.60
2018-06-15T09:15:55.147Z,5.90
2018-06-15T09:16:55.119Z,5.50
2018-06-15T09:17:55.103Z,5.80
2018-06-15T09:18:55.082Z,5.90
2018-06-15T09:19:55.051Z,6.50
2018-06-15T09:20:55.034Z,6.60
2018-06-15T09:21:55.013Z,15.10
2018-06-15T09:22:54.997Z,7.60
2018-06-15T09:23:54.968Z,7.80
2018-06-15T09:24:54.948Z,10.20
2018-06-15T09:25:54.940Z,11.30
2018-06-15T09:26:54.902Z,9.30
2018-06-15T09:27:54.893Z,5.70
2018-06-15T09:28:54.891Z,11.40
2018-06-15T09:29:54.847Z,6.20
2018-06-15T09:30:54.826Z,10.10
2018-06-15T09:31:54.805Z,6.30
2018-06-15T09:32:54.778Z,6.50
2018-06-15T09:33:54.776Z,6.40
2018-06-15T09:34:54.731Z,6.70
2018-06-15T09:35:54.722Z,6.30
2018-06-15T09:36:54.692Z,5.40
2018-06-15T09:37:54.720Z,5.10
2018-06-15T09:38:54.703Z,5.30
2018-06-15T09:39:54.677Z,6.40
2018-06-15T09:40:54.620Z,7.70
2018-06-15T09:41:54.631Z,5.70
2018-06-15T09:42:54.573Z,7.30
2018-06-15T09:43:54.576Z,6.60
2018-06-15T09:44:54.524Z,6.10
2018-06-15T09:45:54.508Z,6.10
2018-06-15T09:46:54.548Z,6.70
2018-06-15T09:47:54.473Z,5.80
2018-06-15T09:48:54.443Z,5.40
2018-06-15T09:49:54.427Z,5.90
2018-06-15T09:50:54.403Z,5.70
2018-06-15T09:51:54.375Z,6.60
2018-06-15T09:52:54.369Z,5.80
2018-06-15T09:53:54.404Z,5.60
2018-06-15T09:54:54.318Z,5.00
2018-06-15T09:55:54.294Z,5.90
2018-06-15T09:56:54.272Z,6.30
2018-06-15T09:57:54.254Z,5.10
2018-06-15T09:58:54.242Z,5.20
2018-06-15T09:59:54.209Z,5.40
2018-06-15T10:00:54.191Z,5.60
2018-06-15T10:01:54.313Z,5.70
2018-06-15T10:02:54.152Z,6.00
2018-06-15T10:03:54.117Z,5.30
2018-06-15T10:04:54.111Z,6.00
2018-06-15T10:05:54.083Z,5.30
2018-06-15T10:06:54.064Z,5.60
2018-06-15T10:07:54.038Z,4.70
2018-06-15T10:08:54.013Z,4.70
2018-06-15T10:09:54.009Z,5.80
2018-06-15T10:10:53.981Z,6.00
2018-06-15T10:11:53.953Z,5.60
2018-06-15T10:12:53.949Z,5.80
2018-06-15T10:13:53.911Z,5.70
2018-06-15T10:14:53.889Z,6.00
2018-06-15T10:15:53.874Z,5.90
2018-06-15T10:16:53.848Z,5.30
2018-06-15T10:17:53.833Z,5.80
2018-06-15T10:18:53.822Z,6.20
2018-06-15T10:19:53.819Z,5.90
2018-06-15T10:20:53.766Z,5.90
2018-06-15T10:21:53.745Z,5.80
2018-06-15T10:22:53.726Z,6.20
2018-06-15T10:23:53.694Z,6.60
2018-06-15T10:24:53.677Z,5.60
2018-06-15T10:25:53.658Z,5.90
2018-06-15T10:26:53.635Z,5.70
2018-06-15T10:27:53.617Z,5.60
2018-06-15T10:28:53.599Z,5.30
2018-06-15T10:29:53.577Z,5.20
2018-06-15T10:30:53.552Z,4.70
2018-06-15T10:31:53.532Z,5.30
2018-06-15T10:32:53.571Z,4.40
2018-06-15T10:33:53.493Z,5.00
2018-06-15T10:34:53.464Z,4.70
2018-06-15T10:35:53.446Z,4.90
2018-06-15T10:36:53.429Z,4.50
2018-06-15T10:37:53.402Z,5.10
2018-06-15T10:38:53.384Z,4.20
2018-06-15T10:39:53.359Z,4.90
2018-06-15T10:40:53.337Z,5.50
2018-06-15T10:41:53.324Z,5.30
2018-06-15T10:42:53.297Z,4.90
2018-06-15T10:43:53.284Z,4.70
2018-06-15T10:44:53.261Z,4.50
2018-06-15T10:45:53.239Z,4.60
2018-06-15T10:46:53.219Z,4.50
2018-06-15T10:47:53.190Z,5.00
2018-06-15T10:48:53.177Z,4.70
2018-06-15T10:49:53.158Z,11.30
2018-06-15T10:50:53.133Z,4.90
2018-06-15T10:51:53.111Z,9.60
2018-06-15T10:52:53.094Z,5.50
2018-06-15T10:53:53.072Z,4.90
2018-06-15T10:54:53.049Z,10.80
2018-06-15T10:55:53.031Z,14.10
2018-06-15T10:56:53.008Z,9.90
2018-06-15T10:57:53.013Z,7.60
2018-06-15T10:58:52.963Z,8.10
2018-06-15T10:59:52.944Z,9.50
2018-06-15T11:00:52.932Z,6.60
2018-06-15T11:01:52.902Z,8.90
2018-06-15T11:02:52.880Z,4.60
2018-06-15T11:03:52.870Z,5.60
2018-06-15T11:04:52.842Z,5.70
2018-06-15T11:05:52.836Z,4.90
2018-06-15T11:06:52.807Z,4.40
2018-06-15T11:07:52.786Z,4.30
2018-06-15T11:08:52.763Z,4.10
2018-06-15T11:09:52.746Z,3.80
2018-06-15T11:10:52.724Z,4.50
2018-06-15T11:11:52.699Z,3.50
2018-06-15T11:12:52.681Z,3.90
2018-06-15T11:13:52.659Z,3.80
2018-06-15T11:14:52.634Z,3.50
2018-06-15T11:15:52.618Z,3.70
2018-06-15T11:16:52.599Z,2.80
2018-06-15T11:17:52.584Z,3.20
2018-06-15T11:18:52.561Z,3.40
2018-06-15T11:19:52.556Z,3.00
2018-06-15T11:20:52.526Z,3.50
2018-06-15T11:21:52.493Z,3.70
2018-06-15T11:22:52.470Z,3.60
2018-06-15T11:23:52.464Z,3.70
2018-06-15T11:24:52.436Z,4.30
2018-06-15T11:25:52.413Z,3.70
2018-06-15T11:26:52.392Z,4.50
2018-06-15T11:27:52.373Z,4.60
2018-06-15T11:28:52.352Z,3.90
2018-06-15T11:29:52.336Z,4.00
2018-06-15T11:30:52.324Z,4.70
2018-06-15T11:31:52.293Z,4.70
2018-06-15T11:32:52.277Z,5.30
2018-06-15T11:33:52.253Z,4.50
2018-06-15T11:34:52.237Z,4.70
2018-06-15T11:35:52.211Z,5.30
2018-06-15T11:36:52.212Z,4.80
2018-06-15T11:37:52.176Z,4.50
2018-06-15T11:38:52.155Z,4.60
2018-06-15T11:39:52.132Z,4.10
2018-06-15T11:40:52.132Z,4.20
2018-06-15T11:41:52.096Z,4.40
2018-06-15T11:42:52.071Z,4.10
2018-06-15T11:43:52.049Z,4.60
2018-06-15T11:44:52.028Z,4.20
2018-06-15T11:45:52.016Z,4.80
2018-06-15T11:46:51.991Z,4.90
2018-06-15T11:47:51.967Z,4.80
2018-06-15T11:48:51.945Z,5.20
2018-06-15T11:49:51.943Z,4.60
2018-06-15T11:50:51.909Z,4.60
2018-06-15T11:51:51.900Z,4.40
2018-06-15T11:52:51.884Z,3.70
2018-06-15T11:53:51.886Z,3.90
2018-06-15T11:54:51.826Z,5.10
2018-06-15T11:55:51.815Z,4.30
2018-06-15T11:56:51.789Z,4.80
2018-06-15T11:57:51.773Z,4.60
2018-06-15T11:58:51.750Z,4.10
2018-06-15T11:59:51.733Z,4.30
2018-06-15T12:00:51.713Z,3.80
2018-06-15T12:01:51.755Z,3.20
2018-06-15T12:02:51.697Z,4.00
2018-06-15T12:03:51.660Z,3.80
2018-06-15T12:04:51.646Z,4.20
2018-06-15T12:05:51.623Z,4.00
2018-06-15T12:06:51.607Z,3.90
2018-06-15T12:07:51.601Z,4.00
2018-06-15T12:08:51.584Z,3.90
2018-06-15T12:09:51.563Z,4.10
2018-06-15T12:10:51.536Z,4.50
2018-06-15T12:11:51.515Z,4.20
2018-06-15T12:12:51.519Z,4.10
2018-06-15T12:13:51.488Z,4.20
2018-06-15T12:14:51.462Z,4.20
2018-06-15T12:15:51.449Z,3.90
2018-06-15T12:16:51.427Z,5.10
2018-06-15T12:17:51.411Z,4.40
2018-06-15T12:18:51.389Z,4.40
2018-06-15T12:19:51.370Z,3.70
2018-06-15T12:20:51.354Z,3.70
2018-06-15T12:21:51.338Z,7.80
2018-06-15T12:22:51.319Z,7.30
2018-06-15T12:23:51.302Z,5.10
2018-06-15T12:24:51.286Z,18.60
2018-06-15T12:25:51.266Z,39.60
2018-06-15T12:26:51.243Z,7.10
2018-06-15T12:27:51.225Z,4.60
2018-06-15T12:28:51.205Z,4.80
2018-06-15T12:29:51.194Z,3.70
2018-06-15T12:30:51.175Z,4.40
2018-06-15T12:31:51.146Z,4.00
2018-06-15T12:32:51.133Z,3.90
2018-06-15T12:33:51.120Z,5.30
2018-06-15T12:34:51.099Z,4.20
2018-06-15T12:35:51.072Z,4.00
2018-06-15T12:36:51.066Z,4.30
2018-06-15T12:37:51.038Z,4.50
2018-06-15T12:38:51.043Z,4.10
2018-06-15T12:39:51.001Z,4.00
2018-06-15T12:40:50.990Z,4.40
2018-06-15T12:41:50.974Z,3.90
2018-06-15T12:42:50.989Z,3.50
2018-06-15T12:43:50.930Z,4.40
2018-06-15T12:44:50.917Z,4.80
2018-06-15T12:45:50.929Z,3.60
2018-06-15T12:46:50.874Z,4.20
2018-06-15T12:47:50.866Z,4.40
2018-06-15T12:48:50.834Z,4.50
2018-06-15T12:49:50.819Z,4.30
2018-06-15T12:50:50.804Z,4.10
2018-06-15T12:51:50.777Z,4.60
2018-06-15T12:52:50.815Z,4.20
2018-06-15T12:53:50.748Z,4.40
2018-06-15T12:54:50.731Z,3.90
2018-06-15T12:55:50.701Z,3.90
2018-06-15T12:56:50.685Z,3.90
2018-06-15T12:57:50.692Z,5.60
2018-06-15T12:58:50.645Z,4.60
2018-06-15T12:59:50.635Z,4.20
2018-06-15T13:00:50.615Z,3.90
2018-06-15T13:01:50.592Z,3.90
2018-06-15T13:02:50.569Z,4.40
2018-06-15T13:03:50.551Z,4.00
2018-06-15T13:04:50.538Z,3.80
2018-06-15T13:05:50.528Z,3.90
2018-06-15T13:06:50.495Z,3.80
2018-06-15T13:07:50.479Z,3.20
2018-06-15T13:08:50.462Z,4.10
2018-06-15T13:09:50.441Z,3.80
2018-06-15T13:10:50.424Z,4.20